sensor_id;sensor_type;location;lat;lon;timestamp;pressure;altitude;pressure_sealevel;temperature;humidity
72262;BME280;60173;52.112;8.648;2023-05-21T00:02:15;100868.84;;;12.91;83.38
72262;BME280;60173;52.112;8.648;2023-05-21T00:04:43;100866.09;;;12.77;83.74
72262;BME280;60173;52.112;8.648;2023-05-21T00:07:10;100855.91;;;12.83;83.93
72262;BME280;60173;52.112;8.648;2023-05-21T00:09:37;100864.38;;;12.81;83.49
72262;BME280;60173;52.112;8.648;2023-05-21T00:12:07;100855.31;;;12.72;83.95
72262;BME280;60173;52.112;8.648;2023-05-21T00:14:34;100853.28;;;12.78;84.25
72262;BME280;60173;52.112;8.648;2023-05-21T00:17:00;100849.84;;;12.72;84.00
72262;BME280;60173;52.112;8.648;2023-05-21T00:19:27;100844.53;;;12.67;84.52
72262;BME280;60173;52.112;8.648;2023-05-21T00:21:53;100838.75;;;12.69;84.35
72262;BME280;60173;52.112;8.648;2023-05-21T00:24:19;100837.53;;;12.61;84.67
72262;BME280;60173;52.112;8.648;2023-05-21T00:26:46;100836.94;;;12.64;84.91
72262;BME280;60173;52.112;8.648;2023-05-21T00:29:12;100837.72;;;12.92;83.81
72262;BME280;60173;52.112;8.648;2023-05-21T00:31:38;100828.06;;;12.86;83.68
72262;BME280;60173;52.112;8.648;2023-05-21T00:34:05;100828.28;;;12.76;84.39
72262;BME280;60173;52.112;8.648;2023-05-21T00:36:31;100829.25;;;12.80;84.03
72262;BME280;60173;52.112;8.648;2023-05-21T00:38:57;100829.25;;;12.80;83.92
72262;BME280;60173;52.112;8.648;2023-05-21T00:41:24;100831.66;;;12.95;83.72
72262;BME280;60173;52.112;8.648;2023-05-21T00:43:50;100829.66;;;12.87;83.88
72262;BME280;60173;52.112;8.648;2023-05-21T00:46:18;100831.28;;;12.60;84.96
72262;BME280;60173;52.112;8.648;2023-05-21T00:48:46;100822.00;;;12.75;84.93
72262;BME280;60173;52.112;8.648;2023-05-21T00:51:13;100820.84;;;13.04;83.60
72262;BME280;60173;52.112;8.648;2023-05-21T00:53:41;100823.78;;;13.07;83.22
72262;BME280;60173;52.112;8.648;2023-05-21T00:56:08;100820.88;;;12.90;83.59
72262;BME280;60173;52.112;8.648;2023-05-21T00:58:34;100819.25;;;12.89;84.22
72262;BME280;60173;52.112;8.648;2023-05-21T01:01:01;100821.19;;;12.88;83.74
72262;BME280;60173;52.112;8.648;2023-05-21T01:03:29;100820.56;;;12.78;84.69
72262;BME280;60173;52.112;8.648;2023-05-21T01:05:55;100812.09;;;12.93;84.05
72262;BME280;60173;52.112;8.648;2023-05-21T01:08:22;100816.94;;;12.69;84.89
72262;BME280;60173;52.112;8.648;2023-05-21T01:10:48;100813.91;;;12.84;84.81
72262;BME280;60173;52.112;8.648;2023-05-21T01:13:15;100817.06;;;12.77;84.54
72262;BME280;60173;52.112;8.648;2023-05-21T01:15:43;100816.75;;;12.65;84.93
72262;BME280;60173;52.112;8.648;2023-05-21T01:18:10;100806.84;;;12.69;85.51
72262;BME280;60173;52.112;8.648;2023-05-21T01:20:37;100811.31;;;12.51;85.95
72262;BME280;60173;52.112;8.648;2023-05-21T01:23:04;100807.38;;;12.57;85.80
72262;BME280;60173;52.112;8.648;2023-05-21T01:25:30;100797.56;;;12.42;86.41
72262;BME280;60173;52.112;8.648;2023-05-21T01:27:56;100806.47;;;12.62;85.72
72262;BME280;60173;52.112;8.648;2023-05-21T01:30:23;100807.78;;;12.64;85.64
72262;BME280;60173;52.112;8.648;2023-05-21T01:33:01;100807.06;;;12.45;86.15
72262;BME280;60173;52.112;8.648;2023-05-21T01:35:40;100806.28;;;12.58;85.90
72262;BME280;60173;52.112;8.648;2023-05-21T01:38:28;100801.22;;;12.52;86.42
72262;BME280;60173;52.112;8.648;2023-05-21T01:41:02;100805.97;;;12.60;85.97
72262;BME280;60173;52.112;8.648;2023-05-21T01:43:33;100798.09;;;12.44;87.10
72262;BME280;60173;52.112;8.648;2023-05-21T01:46:02;100798.38;;;12.29;87.33
72262;BME280;60173;52.112;8.648;2023-05-21T01:48:30;100797.38;;;12.25;88.30
72262;BME280;60173;52.112;8.648;2023-05-21T01:50:59;100794.53;;;12.30;87.95
72262;BME280;60173;52.112;8.648;2023-05-21T01:53:27;100796.72;;;12.14;88.10
72262;BME280;60173;52.112;8.648;2023-05-21T01:55:53;100803.69;;;12.07;89.27
72262;BME280;60173;52.112;8.648;2023-05-21T01:58:19;100799.56;;;12.09;88.97
72262;BME280;60173;52.112;8.648;2023-05-21T02:00:46;100795.31;;;12.17;88.21
72262;BME280;60173;52.112;8.648;2023-05-21T02:03:13;100789.97;;;11.98;89.55
72262;BME280;60173;52.112;8.648;2023-05-21T02:05:39;100787.66;;;12.05;89.22
72262;BME280;60173;52.112;8.648;2023-05-21T02:08:06;100783.81;;;12.06;89.12
72262;BME280;60173;52.112;8.648;2023-05-21T02:10:33;100778.69;;;12.18;89.07
72262;BME280;60173;52.112;8.648;2023-05-21T02:12:59;100787.66;;;12.05;89.18
72262;BME280;60173;52.112;8.648;2023-05-21T02:15:26;100780.94;;;11.84;90.42
72262;BME280;60173;52.112;8.648;2023-05-21T02:17:52;100777.56;;;11.92;90.53
72262;BME280;60173;52.112;8.648;2023-05-21T02:20:19;100781.56;;;11.94;90.30
72262;BME280;60173;52.112;8.648;2023-05-21T02:22:47;100783.28;;;11.90;90.35
72262;BME280;60173;52.112;8.648;2023-05-21T02:25:15;100776.25;;;11.70;91.59
72262;BME280;60173;52.112;8.648;2023-05-21T02:27:42;100776.06;;;11.81;90.82
72262;BME280;60173;52.112;8.648;2023-05-21T02:30:10;100782.00;;;12.02;90.41
72262;BME280;60173;52.112;8.648;2023-05-21T02:32:38;100782.63;;;12.12;89.78
72262;BME280;60173;52.112;8.648;2023-05-21T02:35:04;100782.84;;;12.16;89.23
72262;BME280;60173;52.112;8.648;2023-05-21T02:37:31;100792.09;;;12.01;89.87
72262;BME280;60173;52.112;8.648;2023-05-21T02:39:58;100782.03;;;12.15;89.50
72262;BME280;60173;52.112;8.648;2023-05-21T02:42:24;100778.88;;;12.08;89.20
72262;BME280;60173;52.112;8.648;2023-05-21T02:44:51;100779.47;;;12.05;89.45
72262;BME280;60173;52.112;8.648;2023-05-21T02:47:18;100780.56;;;11.90;90.59
72262;BME280;60173;52.112;8.648;2023-05-21T02:49:45;100779.16;;;11.93;90.29
72262;BME280;60173;52.112;8.648;2023-05-21T02:52:11;100785.84;;;11.82;91.43
72262;BME280;60173;52.112;8.648;2023-05-21T02:54:38;100785.53;;;12.02;90.67
72262;BME280;60173;52.112;8.648;2023-05-21T02:57:04;100769.41;;;11.73;91.52
72262;BME280;60173;52.112;8.648;2023-05-21T02:59:31;100772.69;;;11.89;90.46
72262;BME280;60173;52.112;8.648;2023-05-21T03:01:57;100773.41;;;11.94;90.93
72262;BME280;60173;52.112;8.648;2023-05-21T03:04:23;100768.88;;;11.90;91.24
72262;BME280;60173;52.112;8.648;2023-05-21T03:06:50;100758.22;;;12.07;90.27
72262;BME280;60173;52.112;8.648;2023-05-21T03:09:16;100757.09;;;12.08;89.40
72262;BME280;60173;52.112;8.648;2023-05-21T03:11:43;100754.56;;;11.98;90.64
72262;BME280;60173;52.112;8.648;2023-05-21T03:14:09;100757.59;;;12.10;90.21
72262;BME280;60173;52.112;8.648;2023-05-21T03:16:35;100750.97;;;12.16;89.83
72262;BME280;60173;52.112;8.648;2023-05-21T03:19:02;100750.88;;;11.75;91.45
72262;BME280;60173;52.112;8.648;2023-05-21T03:21:28;100746.41;;;11.98;90.77
72262;BME280;60173;52.112;8.648;2023-05-21T03:23:55;100747.22;;;11.80;91.87
72262;BME280;60173;52.112;8.648;2023-05-21T03:26:21;100742.06;;;11.97;91.51
72262;BME280;60173;52.112;8.648;2023-05-21T03:28:48;100751.53;;;11.99;91.13
72262;BME280;60173;52.112;8.648;2023-05-21T03:31:14;100751.34;;;12.24;90.00
72262;BME280;60173;52.112;8.648;2023-05-21T03:33:40;100751.97;;;12.20;89.96
72262;BME280;60173;52.112;8.648;2023-05-21T03:36:07;100755.41;;;12.12;90.51
72262;BME280;60173;52.112;8.648;2023-05-21T03:38:33;100753.59;;;12.21;89.74
72262;BME280;60173;52.112;8.648;2023-05-21T03:41:02;100761.84;;;12.16;90.29
72262;BME280;60173;52.112;8.648;2023-05-21T03:43:28;100761.63;;;11.99;91.11
72262;BME280;60173;52.112;8.648;2023-05-21T03:45:55;100752.25;;;12.05;90.57
72262;BME280;60173;52.112;8.648;2023-05-21T03:48:21;100756.28;;;12.08;90.69
72262;BME280;60173;52.112;8.648;2023-05-21T03:50:48;100762.47;;;11.81;91.75
72262;BME280;60173;52.112;8.648;2023-05-21T03:53:14;100757.78;;;12.00;91.45
72262;BME280;60173;52.112;8.648;2023-05-21T03:55:40;100766.47;;;12.02;90.72
72262;BME280;60173;52.112;8.648;2023-05-21T03:58:07;100769.09;;;12.07;90.69
72262;BME280;60173;52.112;8.648;2023-05-21T04:00:33;100769.81;;;12.13;90.51
72262;BME280;60173;52.112;8.648;2023-05-21T04:02:59;100762.66;;;12.17;90.19
72262;BME280;60173;52.112;8.648;2023-05-21T04:05:26;100767.28;;;12.16;90.29
72262;BME280;60173;52.112;8.648;2023-05-21T04:07:52;100759.81;;;12.08;90.57
72262;BME280;60173;52.112;8.648;2023-05-21T04:10:19;100767.59;;;12.15;90.64
72262;BME280;60173;52.112;8.648;2023-05-21T04:12:45;100757.91;;;12.09;90.89
72262;BME280;60173;52.112;8.648;2023-05-21T04:15:11;100764.25;;;12.04;91.11
72262;BME280;60173;52.112;8.648;2023-05-21T04:17:38;100765.25;;;12.08;91.12
72262;BME280;60173;52.112;8.648;2023-05-21T04:20:05;100777.34;;;12.02;91.01
72262;BME280;60173;52.112;8.648;2023-05-21T04:22:31;100763.84;;;11.97;91.04
72262;BME280;60173;52.112;8.648;2023-05-21T04:24:58;100770.59;;;11.99;90.74
72262;BME280;60173;52.112;8.648;2023-05-21T04:27:24;100768.00;;;12.08;90.95
72262;BME280;60173;52.112;8.648;2023-05-21T04:29:50;100773.22;;;12.05;90.98
72262;BME280;60173;52.112;8.648;2023-05-21T04:32:17;100782.00;;;12.02;91.26
72262;BME280;60173;52.112;8.648;2023-05-21T04:34:43;100784.59;;;11.93;91.74
72262;BME280;60173;52.112;8.648;2023-05-21T04:37:10;100780.16;;;11.64;92.95
72262;BME280;60173;52.112;8.648;2023-05-21T04:39:36;100785.13;;;11.76;92.33
72262;BME280;60173;52.112;8.648;2023-05-21T04:42:02;100782.13;;;11.77;92.27
72262;BME280;60173;52.112;8.648;2023-05-21T04:44:29;100791.38;;;11.76;92.76
72262;BME280;60173;52.112;8.648;2023-05-21T04:46:55;100794.16;;;11.90;91.56
72262;BME280;60173;52.112;8.648;2023-05-21T04:49:22;100786.38;;;11.84;91.87
72262;BME280;60173;52.112;8.648;2023-05-21T04:51:48;100786.28;;;11.89;92.33
72262;BME280;60173;52.112;8.648;2023-05-21T04:54:14;100783.63;;;12.16;90.81
72262;BME280;60173;52.112;8.648;2023-05-21T04:56:41;100787.47;;;12.29;90.53
72262;BME280;60173;52.112;8.648;2023-05-21T04:59:07;100782.84;;;12.30;90.34
72262;BME280;60173;52.112;8.648;2023-05-21T05:01:34;100780.41;;;12.28;89.84
72262;BME280;60173;52.112;8.648;2023-05-21T05:04:01;100776.69;;;12.38;89.95
72262;BME280;60173;52.112;8.648;2023-05-21T05:06:27;100767.28;;;12.16;90.15
72262;BME280;60173;52.112;8.648;2023-05-21T05:08:53;100777.88;;;12.32;89.82
72262;BME280;60173;52.112;8.648;2023-05-21T05:11:20;100767.50;;;12.34;89.95
72262;BME280;60173;52.112;8.648;2023-05-21T05:13:46;100766.81;;;12.42;89.49
72262;BME280;60173;52.112;8.648;2023-05-21T05:16:13;100759.81;;;12.50;88.30
72262;BME280;60173;52.112;8.648;2023-05-21T05:18:39;100763.47;;;12.45;89.36
72262;BME280;60173;52.112;8.648;2023-05-21T05:21:06;100759.72;;;12.69;88.23
72262;BME280;60173;52.112;8.648;2023-05-21T05:23:32;100758.03;;;12.31;89.32
72262;BME280;60173;52.112;8.648;2023-05-21T05:25:58;100763.88;;;12.52;88.63
72262;BME280;60173;52.112;8.648;2023-05-21T05:28:25;100759.63;;;12.60;87.46
72262;BME280;60173;52.112;8.648;2023-05-21T05:30:51;100749.34;;;12.71;86.79
72262;BME280;60173;52.112;8.648;2023-05-21T05:33:18;100761.13;;;12.52;88.50
72262;BME280;60173;52.112;8.648;2023-05-21T05:35:44;100753.66;;;12.72;87.46
72262;BME280;60173;52.112;8.648;2023-05-21T05:38:10;100758.56;;;12.97;86.89
72262;BME280;60173;52.112;8.648;2023-05-21T05:40:37;100752.72;;;12.90;86.60
72262;BME280;60173;52.112;8.648;2023-05-21T05:43:03;100754.88;;;12.65;86.74
72262;BME280;60173;52.112;8.648;2023-05-21T05:45:30;100751.53;;;12.82;87.09
72262;BME280;60173;52.112;8.648;2023-05-21T05:47:56;100750.94;;;12.72;86.88
72262;BME280;60173;52.112;8.648;2023-05-21T05:50:22;100747.31;;;12.76;86.76
72262;BME280;60173;52.112;8.648;2023-05-21T05:52:49;100746.91;;;12.69;88.23
72262;BME280;60173;52.112;8.648;2023-05-21T05:55:15;100756.50;;;13.17;85.99
72262;BME280;60173;52.112;8.648;2023-05-21T05:57:42;100752.94;;;13.30;85.02
72262;BME280;60173;52.112;8.648;2023-05-21T06:00:10;100759.94;;;13.22;85.31
72262;BME280;60173;52.112;8.648;2023-05-21T06:02:37;100749.47;;;13.02;85.60
72262;BME280;60173;52.112;8.648;2023-05-21T06:05:04;100747.50;;;12.80;87.29
72262;BME280;60173;52.112;8.648;2023-05-21T06:07:31;100751.13;;;12.89;86.18
72262;BME280;60173;52.112;8.648;2023-05-21T06:09:57;100748.25;;;13.08;86.27
72262;BME280;60173;52.112;8.648;2023-05-21T06:12:24;100751.53;;;13.19;84.71
72262;BME280;60173;52.112;8.648;2023-05-21T06:14:51;100742.25;;;12.70;87.92
72262;BME280;60173;52.112;8.648;2023-05-21T06:17:17;100741.63;;;13.37;85.42
72262;BME280;60173;52.112;8.648;2023-05-21T06:19:44;100743.81;;;12.98;85.94
72262;BME280;60173;52.112;8.648;2023-05-21T06:22:10;100741.97;;;13.07;86.49
72262;BME280;60173;52.112;8.648;2023-05-21T06:24:36;100739.31;;;13.30;85.13
72262;BME280;60173;52.112;8.648;2023-05-21T06:27:03;100739.44;;;12.61;87.94
72262;BME280;60173;52.112;8.648;2023-05-21T06:29:29;100750.66;;;13.09;86.86
72262;BME280;60173;52.112;8.648;2023-05-21T06:31:56;100748.19;;;13.22;85.63
72262;BME280;60173;52.112;8.648;2023-05-21T06:34:22;100749.06;;;13.08;86.07
72262;BME280;60173;52.112;8.648;2023-05-21T06:36:50;100750.81;;;13.27;85.73
72262;BME280;60173;52.112;8.648;2023-05-21T06:39:16;100749.41;;;13.29;85.37
72262;BME280;60173;52.112;8.648;2023-05-21T06:41:43;100742.97;;;13.11;85.75
72262;BME280;60173;52.112;8.648;2023-05-21T06:44:09;100741.88;;;12.99;86.49
72262;BME280;60173;52.112;8.648;2023-05-21T06:46:35;100737.63;;;13.06;86.58
72262;BME280;60173;52.112;8.648;2023-05-21T06:49:02;100740.94;;;13.31;85.88
72262;BME280;60173;52.112;8.648;2023-05-21T06:51:28;100733.06;;;13.52;83.68
72262;BME280;60173;52.112;8.648;2023-05-21T06:53:55;100733.72;;;13.80;83.24
72262;BME280;60173;52.112;8.648;2023-05-21T06:56:21;100738.66;;;13.78;83.81
72262;BME280;60173;52.112;8.648;2023-05-21T06:58:47;100736.91;;;13.82;82.94
72262;BME280;60173;52.112;8.648;2023-05-21T07:01:14;100739.91;;;13.27;85.04
72262;BME280;60173;52.112;8.648;2023-05-21T07:03:40;100746.28;;;13.22;85.52
72262;BME280;60173;52.112;8.648;2023-05-21T07:06:07;100748.44;;;13.25;84.83
72262;BME280;60173;52.112;8.648;2023-05-21T07:08:33;100747.56;;;13.25;85.59
72262;BME280;60173;52.112;8.648;2023-05-21T07:10:59;100754.84;;;14.06;82.55
72262;BME280;60173;52.112;8.648;2023-05-21T07:13:26;100745.91;;;14.54;80.92
72262;BME280;60173;52.112;8.648;2023-05-21T07:15:52;100740.28;;;14.10;81.08
72262;BME280;60173;52.112;8.648;2023-05-21T07:18:18;100742.75;;;13.89;81.58
72262;BME280;60173;52.112;8.648;2023-05-21T07:20:45;100744.19;;;13.42;83.66
72262;BME280;60173;52.112;8.648;2023-05-21T07:23:11;100745.88;;;13.51;84.06
72262;BME280;60173;52.112;8.648;2023-05-21T07:25:38;100748.59;;;13.74;82.72
72262;BME280;60173;52.112;8.648;2023-05-21T07:28:04;100743.66;;;14.16;81.72
72262;BME280;60173;52.112;8.648;2023-05-21T07:30:32;100751.56;;;13.86;82.11
72262;BME280;60173;52.112;8.648;2023-05-21T07:32:58;100751.28;;;13.96;82.89
72262;BME280;60173;52.112;8.648;2023-05-21T07:35:24;100750.88;;;14.52;81.55
72262;BME280;60173;52.112;8.648;2023-05-21T07:37:51;100751.09;;;14.55;80.34
72262;BME280;60173;52.112;8.648;2023-05-21T07:40:17;100746.41;;;14.16;80.54
72262;BME280;60173;52.112;8.648;2023-05-21T07:42:44;100746.75;;;14.23;80.59
72262;BME280;60173;52.112;8.648;2023-05-21T07:45:10;100738.59;;;14.89;79.68
72262;BME280;60173;52.112;8.648;2023-05-21T07:47:36;100741.81;;;15.08;77.39
72262;BME280;60173;52.112;8.648;2023-05-21T07:50:03;100746.66;;;15.11;78.19
72262;BME280;60173;52.112;8.648;2023-05-21T07:52:30;100733.25;;;14.84;77.46
72262;BME280;60173;52.112;8.648;2023-05-21T07:54:56;100731.19;;;14.98;79.20
72262;BME280;60173;52.112;8.648;2023-05-21T07:57:23;100736.84;;;15.02;78.47
72262;BME280;60173;52.112;8.648;2023-05-21T07:59:49;100731.03;;;15.12;78.00
72262;BME280;60173;52.112;8.648;2023-05-21T08:02:16;100727.81;;;15.10;78.08
72262;BME280;60173;52.112;8.648;2023-05-21T08:04:42;100743.91;;;15.20;78.14
72262;BME280;60173;52.112;8.648;2023-05-21T08:07:08;100731.38;;;15.36;77.59
72262;BME280;60173;52.112;8.648;2023-05-21T08:09:35;100734.06;;;15.54;76.52
72262;BME280;60173;52.112;8.648;2023-05-21T08:12:01;100740.69;;;15.35;77.97
72262;BME280;60173;52.112;8.648;2023-05-21T08:14:28;100737.81;;;15.14;77.50
72262;BME280;60173;52.112;8.648;2023-05-21T08:16:54;100738.44;;;15.29;78.48
72262;BME280;60173;52.112;8.648;2023-05-21T08:19:20;100740.03;;;15.21;77.57
72262;BME280;60173;52.112;8.648;2023-05-21T08:21:47;100745.50;;;15.56;76.87
72262;BME280;60173;52.112;8.648;2023-05-21T08:24:16;100744.69;;;15.47;78.63
72262;BME280;60173;52.112;8.648;2023-05-21T08:26:42;100748.84;;;15.79;77.25
72262;BME280;60173;52.112;8.648;2023-05-21T08:29:09;100748.06;;;15.61;78.31
72262;BME280;60173;52.112;8.648;2023-05-21T08:31:35;100740.28;;;15.98;76.13
72262;BME280;60173;52.112;8.648;2023-05-21T08:34:02;100739.88;;;15.44;76.83
72262;BME280;60173;52.112;8.648;2023-05-21T08:36:28;100736.09;;;16.00;77.20
72262;BME280;60173;52.112;8.648;2023-05-21T08:38:54;100737.34;;;16.12;77.03
72262;BME280;60173;52.112;8.648;2023-05-21T08:41:21;100731.22;;;16.06;76.53
72262;BME280;60173;52.112;8.648;2023-05-21T08:43:54;100727.22;;;16.03;75.75
72262;BME280;60173;52.112;8.648;2023-05-21T08:46:22;100739.41;;;16.15;76.75
72262;BME280;60173;52.112;8.648;2023-05-21T08:48:50;100732.59;;;15.82;75.96
72262;BME280;60173;52.112;8.648;2023-05-21T08:51:16;100741.94;;;15.81;77.04
72262;BME280;60173;52.112;8.648;2023-05-21T08:53:43;100736.28;;;15.87;78.28
72262;BME280;60173;52.112;8.648;2023-05-21T08:56:10;100733.22;;;16.26;75.18
72262;BME280;60173;52.112;8.648;2023-05-21T08:58:39;100733.78;;;16.70;75.45
72262;BME280;60173;52.112;8.648;2023-05-21T09:01:06;100743.97;;;15.93;75.62
72262;BME280;60173;52.112;8.648;2023-05-21T09:03:33;100745.81;;;15.72;77.54
72262;BME280;60173;52.112;8.648;2023-05-21T09:06:00;100736.25;;;16.34;75.93
72262;BME280;60173;52.112;8.648;2023-05-21T09:08:30;100739.16;;;16.28;76.50
72262;BME280;60173;52.112;8.648;2023-05-21T09:10:57;100741.59;;;16.60;75.15
72262;BME280;60173;52.112;8.648;2023-05-21T09:13:24;100735.59;;;16.96;73.58
72262;BME280;60173;52.112;8.648;2023-05-21T09:15:51;100739.28;;;16.70;73.96
72262;BME280;60173;52.112;8.648;2023-05-21T09:18:18;100741.16;;;16.19;75.36
72262;BME280;60173;52.112;8.648;2023-05-21T09:20:44;100733.78;;;16.70;74.05
72262;BME280;60173;52.112;8.648;2023-05-21T09:23:10;100728.28;;;17.00;72.67
72262;BME280;60173;52.112;8.648;2023-05-21T09:25:37;100737.38;;;16.92;73.93
72262;BME280;60173;52.112;8.648;2023-05-21T09:28:10;100729.16;;;16.92;73.87
72262;BME280;60173;52.112;8.648;2023-05-21T09:30:45;100726.09;;;16.93;74.03
72262;BME280;60173;52.112;8.648;2023-05-21T09:33:12;100724.47;;;17.13;73.02
72262;BME280;60173;52.112;8.648;2023-05-21T09:35:49;100726.75;;;17.11;72.92
72262;BME280;60173;52.112;8.648;2023-05-21T09:38:15;100717.31;;;17.54;71.22
72262;BME280;60173;52.112;8.648;2023-05-21T09:40:43;100708.69;;;17.44;72.09
72262;BME280;60173;52.112;8.648;2023-05-21T09:43:13;100720.31;;;17.28;75.27
72262;BME280;60173;52.112;8.648;2023-05-21T09:45:52;100708.69;;;17.10;74.18
72262;BME280;60173;52.112;8.648;2023-05-21T09:48:39;100712.03;;;17.16;72.42
72262;BME280;60173;52.112;8.648;2023-05-21T09:51:11;100706.31;;;17.54;72.24
72262;BME280;60173;52.112;8.648;2023-05-21T09:53:52;100715.13;;;16.64;74.86
72262;BME280;60173;52.112;8.648;2023-05-21T09:56:21;100716.03;;;17.19;73.80
72262;BME280;60173;52.112;8.648;2023-05-21T09:58:50;100713.00;;;17.66;73.84
72262;BME280;60173;52.112;8.648;2023-05-21T10:01:18;100723.16;;;17.86;72.27
72262;BME280;60173;52.112;8.648;2023-05-21T10:03:49;100717.44;;;18.03;71.46
72262;BME280;60173;52.112;8.648;2023-05-21T10:06:19;100720.19;;;18.16;70.70
72262;BME280;60173;52.112;8.648;2023-05-21T10:08:47;100713.41;;;18.87;69.37
72262;BME280;60173;52.112;8.648;2023-05-21T10:11:15;100710.03;;;17.71;72.11
72262;BME280;60173;52.112;8.648;2023-05-21T10:13:44;100705.75;;;17.61;71.86
72262;BME280;60173;52.112;8.648;2023-05-21T10:16:14;100701.38;;;18.79;71.30
72262;BME280;60173;52.112;8.648;2023-05-21T10:18:41;100704.66;;;19.53;67.34
72262;BME280;60173;52.112;8.648;2023-05-21T10:21:07;100697.97;;;18.58;70.91
72262;BME280;60173;52.112;8.648;2023-05-21T10:23:35;100702.75;;;18.85;69.13
72262;BME280;60173;52.112;8.648;2023-05-21T10:26:03;100691.97;;;18.92;69.37
72262;BME280;60173;52.112;8.648;2023-05-21T10:28:32;100696.16;;;18.37;69.11
72262;BME280;60173;52.112;8.648;2023-05-21T10:30:59;100691.09;;;17.90;71.02
72262;BME280;60173;52.112;8.648;2023-05-21T10:33:26;100690.63;;;18.49;70.65
72262;BME280;60173;52.112;8.648;2023-05-21T10:35:53;100683.47;;;18.73;71.24
72262;BME280;60173;52.112;8.648;2023-05-21T10:38:21;100678.31;;;18.71;70.61
72262;BME280;60173;52.112;8.648;2023-05-21T10:40:48;100675.25;;;19.13;68.40
72262;BME280;60173;52.112;8.648;2023-05-21T10:49:50;100667.31;;;19.12;70.27
72262;BME280;60173;52.112;8.648;2023-05-21T10:58:07;100666.66;;;19.31;68.75
72262;BME280;60173;52.112;8.648;2023-05-21T11:00:27;100665.25;;;19.81;67.84
72262;BME280;60173;52.112;8.648;2023-05-21T11:02:53;100649.59;;;20.17;67.73
72262;BME280;60173;52.112;8.648;2023-05-21T11:05:54;100657.16;;;19.72;67.38
72262;BME280;60173;52.112;8.648;2023-05-21T11:13:18;100646.66;;;19.62;68.62
72262;BME280;60173;52.112;8.648;2023-05-21T11:16:01;100645.78;;;20.05;68.06
72262;BME280;60173;52.112;8.648;2023-05-21T11:21:09;100641.13;;;20.25;67.18
72262;BME280;60173;52.112;8.648;2023-05-21T11:23:59;100632.59;;;20.50;67.86
72262;BME280;60173;52.112;8.648;2023-05-21T11:26:29;100631.81;;;20.33;66.58
72262;BME280;60173;52.112;8.648;2023-05-21T11:31:32;100643.47;;;20.78;66.83
72262;BME280;60173;52.112;8.648;2023-05-21T11:36:48;100645.91;;;20.28;66.83
72262;BME280;60173;52.112;8.648;2023-05-21T11:39:16;100641.38;;;20.20;68.06
72262;BME280;60173;52.112;8.648;2023-05-21T11:41:52;100639.28;;;20.14;68.73
72262;BME280;60173;52.112;8.648;2023-05-21T11:47:04;100634.19;;;20.16;69.69
72262;BME280;60173;52.112;8.648;2023-05-21T11:49:32;100630.94;;;20.29;68.54
72262;BME280;60173;52.112;8.648;2023-05-21T11:51:59;100634.91;;;20.48;66.66
72262;BME280;60173;52.112;8.648;2023-05-21T11:54:26;100633.94;;;20.56;67.02
72262;BME280;60173;52.112;8.648;2023-05-21T11:56:53;100637.66;;;20.48;66.57
72262;BME280;60173;52.112;8.648;2023-05-21T11:59:20;100633.25;;;20.43;66.99
72262;BME280;60173;52.112;8.648;2023-05-21T12:01:46;100628.28;;;20.88;66.30
72262;BME280;60173;52.112;8.648;2023-05-21T12:04:12;100630.56;;;21.25;67.25
72262;BME280;60173;52.112;8.648;2023-05-21T12:06:41;100625.41;;;21.42;65.87
72262;BME280;60173;52.112;8.648;2023-05-21T12:09:09;100622.59;;;21.00;66.69
72262;BME280;60173;52.112;8.648;2023-05-21T12:11:39;100616.38;;;21.26;67.81
72262;BME280;60173;52.112;8.648;2023-05-21T12:14:07;100625.22;;;20.93;67.23
72262;BME280;60173;52.112;8.648;2023-05-21T12:16:34;100618.84;;;20.89;66.69
72262;BME280;60173;52.112;8.648;2023-05-21T12:19:04;100616.50;;;20.91;65.78
72262;BME280;60173;52.112;8.648;2023-05-21T12:21:32;100613.84;;;20.94;66.84
72262;BME280;60173;52.112;8.648;2023-05-21T12:23:58;100622.72;;;21.27;66.78
72262;BME280;60173;52.112;8.648;2023-05-21T12:26:25;100616.50;;;21.53;65.48
72262;BME280;60173;52.112;8.648;2023-05-21T12:28:53;100615.50;;;21.87;65.45
72262;BME280;60173;52.112;8.648;2023-05-21T12:31:20;100609.38;;;21.52;65.04
72262;BME280;60173;52.112;8.648;2023-05-21T12:33:50;100609.78;;;22.26;64.35
72262;BME280;60173;52.112;8.648;2023-05-21T12:36:29;100612.13;;;22.88;61.62
72262;BME280;60173;52.112;8.648;2023-05-21T12:38:56;100596.06;;;22.97;60.47
72262;BME280;60173;52.112;8.648;2023-05-21T12:41:22;100599.69;;;22.71;61.03
72262;BME280;60173;52.112;8.648;2023-05-21T12:43:50;100605.00;;;23.17;59.76
72262;BME280;60173;52.112;8.648;2023-05-21T12:46:16;100609.16;;;23.41;59.77
72262;BME280;60173;52.112;8.648;2023-05-21T12:48:52;100601.22;;;23.40;59.92
72262;BME280;60173;52.112;8.648;2023-05-21T12:51:19;100593.34;;;22.71;62.81
72262;BME280;60173;52.112;8.648;2023-05-21T12:53:46;100596.69;;;22.87;62.60
72262;BME280;60173;52.112;8.648;2023-05-21T12:56:14;100587.69;;;23.31;61.74
72262;BME280;60173;52.112;8.648;2023-05-21T12:58:41;100593.09;;;23.17;60.08
72262;BME280;60173;52.112;8.648;2023-05-21T13:01:10;100587.13;;;23.56;60.59
72262;BME280;60173;52.112;8.648;2023-05-21T13:03:37;100590.84;;;23.30;59.78
72262;BME280;60173;52.112;8.648;2023-05-21T13:06:07;100593.19;;;22.90;61.32
72262;BME280;60173;52.112;8.648;2023-05-21T13:08:34;100598.16;;;22.74;61.79
72262;BME280;60173;52.112;8.648;2023-05-21T13:11:01;100590.13;;;22.65;61.01
72262;BME280;60173;52.112;8.648;2023-05-21T13:13:34;100595.03;;;23.13;62.57
72262;BME280;60173;52.112;8.648;2023-05-21T13:16:00;100592.28;;;23.16;59.45
72262;BME280;60173;52.112;8.648;2023-05-21T13:18:27;100592.09;;;23.80;58.10
72262;BME280;60173;52.112;8.648;2023-05-21T13:20:53;100583.88;;;23.95;57.77